sensor_id;sensor_type;location;lat;lon;timestamp;temperature;humidity
12111;DHT22;6119;52.372;8.990;2022-08-19T00:02:39;21.90;99.90
12111;DHT22;6119;52.372;8.990;2022-08-19T00:05:36;21.80;99.90
12111;DHT22;6119;52.372;8.990;2022-08-19T00:08:22;21.70;99.90
12111;DHT22;6119;52.372;8.990;2022-08-19T00:11:09;21.70;99.90
12111;DHT22;6119;52.372;8.990;2022-08-19T00:14:04;21.60;99.90
12111;DHT22;6119;52.372;8.990;2022-08-19T00:16:52;21.60;99.90
12111;DHT22;6119;52.372;8.990;2022-08-19T00:19:40;21.60;99.90
12111;DHT22;6119;52.372;8.990;2022-08-19T00:22:28;21.50;99.90
12111;DHT22;6119;52.372;8.990;2022-08-19T00:25:15;21.50;99.90
12111;DHT22;6119;52.372;8.990;2022-08-19T00:28:14;21.60;99.90
12111;DHT22;6119;52.372;8.990;2022-08-19T00:31:01;21.50;99.90
12111;DHT22;6119;52.372;8.990;2022-08-19T00:33:48;21.50;99.90
12111;DHT22;6119;52.372;8.990;2022-08-19T00:36:35;21.50;99.90
12111;DHT22;6119;52.372;8.990;2022-08-19T00:39:24;21.30;99.90
12111;DHT22;6119;52.372;8.990;2022-08-19T00:42:11;21.40;99.90
12111;DHT22;6119;52.372;8.990;2022-08-19T00:45:00;21.30;99.90
12111;DHT22;6119;52.372;8.990;2022-08-19T00:47:46;21.20;99.90
12111;DHT22;6119;52.372;8.990;2022-08-19T00:50:33;21.20;99.90
12111;DHT22;6119;52.372;8.990;2022-08-19T00:53:36;21.20;99.90
12111;DHT22;6119;52.372;8.990;2022-08-19T00:56:26;21.20;99.90
12111;DHT22;6119;52.372;8.990;2022-08-19T00:59:14;21.00;99.90
12111;DHT22;6119;52.372;8.990;2022-08-19T01:02:22;21.00;99.90
12111;DHT22;6119;52.372;8.990;2022-08-19T01:05:11;20.90;99.90
12111;DHT22;6119;52.372;8.990;2022-08-19T01:08:02;20.60;99.90
12111;DHT22;6119;52.372;8.990;2022-08-19T01:10:51;20.60;99.90
12111;DHT22;6119;52.372;8.990;2022-08-19T01:13:39;20.30;99.90
12111;DHT22;6119;52.372;8.990;2022-08-19T01:16:35;20.50;99.90
12111;DHT22;6119;52.372;8.990;2022-08-19T01:19:27;20.50;99.90
12111;DHT22;6119;52.372;8.990;2022-08-19T01:22:30;20.50;99.90
12111;DHT22;6119;52.372;8.990;2022-08-19T01:25:21;20.50;99.90
12111;DHT22;6119;52.372;8.990;2022-08-19T01:28:16;20.40;99.90
12111;DHT22;6119;52.372;8.990;2022-08-19T01:31:23;20.40;99.90
12111;DHT22;6119;52.372;8.990;2022-08-19T01:34:12;20.40;99.90
12111;DHT22;6119;52.372;8.990;2022-08-19T01:36:58;20.50;99.90
12111;DHT22;6119;52.372;8.990;2022-08-19T01:39:48;20.50;99.90
12111;DHT22;6119;52.372;8.990;2022-08-19T01:42:35;20.40;99.90
12111;DHT22;6119;52.372;8.990;2022-08-19T01:45:24;20.40;99.90
12111;DHT22;6119;52.372;8.990;2022-08-19T01:48:12;20.20;99.90
12111;DHT22;6119;52.372;8.990;2022-08-19T01:50:58;20.30;99.90
12111;DHT22;6119;52.372;8.990;2022-08-19T01:53:47;20.30;99.90
12111;DHT22;6119;52.372;8.990;2022-08-19T01:56:35;20.30;99.90
12111;DHT22;6119;52.372;8.990;2022-08-19T01:59:23;20.30;99.90
12111;DHT22;6119;52.372;8.990;2022-08-19T02:02:10;20.30;99.90
12111;DHT22;6119;52.372;8.990;2022-08-19T02:04:57;20.00;99.90
12111;DHT22;6119;52.372;8.990;2022-08-19T02:07:43;20.00;99.90
12111;DHT22;6119;52.372;8.990;2022-08-19T02:10:31;20.00;99.90
12111;DHT22;6119;52.372;8.990;2022-08-19T02:13:19;19.80;99.90
12111;DHT22;6119;52.372;8.990;2022-08-19T02:16:10;20.00;99.90
12111;DHT22;6119;52.372;8.990;2022-08-19T02:18:57;19.90;99.90
12111;DHT22;6119;52.372;8.990;2022-08-19T02:21:45;19.90;99.90
12111;DHT22;6119;52.372;8.990;2022-08-19T02:24:32;20.00;99.90
12111;DHT22;6119;52.372;8.990;2022-08-19T02:27:19;19.90;99.90
12111;DHT22;6119;52.372;8.990;2022-08-19T02:30:12;19.70;99.90
12111;DHT22;6119;52.372;8.990;2022-08-19T02:33:00;19.60;99.90
12111;DHT22;6119;52.372;8.990;2022-08-19T02:35:47;19.40;99.90
12111;DHT22;6119;52.372;8.990;2022-08-19T02:38:34;19.50;99.90
12111;DHT22;6119;52.372;8.990;2022-08-19T02:41:25;19.40;99.90
12111;DHT22;6119;52.372;8.990;2022-08-19T02:44:12;19.10;99.90
12111;DHT22;6119;52.372;8.990;2022-08-19T02:47:17;19.40;99.90
12111;DHT22;6119;52.372;8.990;2022-08-19T02:50:05;19.40;99.90
12111;DHT22;6119;52.372;8.990;2022-08-19T02:52:51;19.50;99.90
12111;DHT22;6119;52.372;8.990;2022-08-19T02:55:43;19.30;99.90
12111;DHT22;6119;52.372;8.990;2022-08-19T02:58:30;19.40;99.90
12111;DHT22;6119;52.372;8.990;2022-08-19T03:01:22;19.30;99.90
12111;DHT22;6119;52.372;8.990;2022-08-19T03:04:13;19.20;99.90
12111;DHT22;6119;52.372;8.990;2022-08-19T03:07:00;19.20;99.90
12111;DHT22;6119;52.372;8.990;2022-08-19T03:09:55;18.90;99.90
12111;DHT22;6119;52.372;8.990;2022-08-19T03:12:41;19.00;99.90
12111;DHT22;6119;52.372;8.990;2022-08-19T03:15:28;19.00;99.90
12111;DHT22;6119;52.372;8.990;2022-08-19T03:18:16;19.10;99.90
12111;DHT22;6119;52.372;8.990;2022-08-19T03:21:05;19.00;99.90
12111;DHT22;6119;52.372;8.990;2022-08-19T03:23:58;19.00;99.90
12111;DHT22;6119;52.372;8.990;2022-08-19T03:26:47;18.60;99.90
12111;DHT22;6119;52.372;8.990;2022-08-19T03:29:37;18.90;99.90
12111;DHT22;6119;52.372;8.990;2022-08-19T03:32:27;19.00;99.90
12111;DHT22;6119;52.372;8.990;2022-08-19T03:35:17;19.00;99.90
12111;DHT22;6119;52.372;8.990;2022-08-19T03:38:06;18.60;99.90
12111;DHT22;6119;52.372;8.990;2022-08-19T03:40:53;18.40;99.90
12111;DHT22;6119;52.372;8.990;2022-08-19T03:43:40;18.60;99.90
12111;DHT22;6119;52.372;8.990;2022-08-19T03:46:29;18.80;99.90
12111;DHT22;6119;52.372;8.990;2022-08-19T03:49:17;18.80;99.90
12111;DHT22;6119;52.372;8.990;2022-08-19T03:52:05;18.40;99.90
12111;DHT22;6119;52.372;8.990;2022-08-19T03:54:54;18.60;99.90
12111;DHT22;6119;52.372;8.990;2022-08-19T03:57:41;18.70;99.90
12111;DHT22;6119;52.372;8.990;2022-08-19T04:00:27;18.80;99.90
12111;DHT22;6119;52.372;8.990;2022-08-19T04:03:14;18.80;99.90
12111;DHT22;6119;52.372;8.990;2022-08-19T04:06:09;18.50;99.90
12111;DHT22;6119;52.372;8.990;2022-08-19T04:08:59;18.50;99.90
12111;DHT22;6119;52.372;8.990;2022-08-19T04:11:50;18.30;99.90
12111;DHT22;6119;52.372;8.990;2022-08-19T04:14:39;18.60;99.90
12111;DHT22;6119;52.372;8.990;2022-08-19T04:17:25;18.70;99.90
12111;DHT22;6119;52.372;8.990;2022-08-19T04:20:12;18.60;99.90
12111;DHT22;6119;52.372;8.990;2022-08-19T04:22:58;18.70;99.90
12111;DHT22;6119;52.372;8.990;2022-08-19T04:25:45;18.70;99.90
12111;DHT22;6119;52.372;8.990;2022-08-19T04:28:32;18.70;99.90
12111;DHT22;6119;52.372;8.990;2022-08-19T04:31:21;18.80;99.90
12111;DHT22;6119;52.372;8.990;2022-08-19T04:34:09;18.80;99.90
12111;DHT22;6119;52.372;8.990;2022-08-19T04:36:57;18.80;99.90
12111;DHT22;6119;52.372;8.990;2022-08-19T04:39:44;18.80;99.90
12111;DHT22;6119;52.372;8.990;2022-08-19T04:42:48;18.70;99.90
12111;DHT22;6119;52.372;8.990;2022-08-19T04:45:36;18.80;99.90
12111;DHT22;6119;52.372;8.990;2022-08-19T04:48:28;18.70;99.90
12111;DHT22;6119;52.372;8.990;2022-08-19T04:51:18;18.80;99.90
12111;DHT22;6119;52.372;8.990;2022-08-19T04:54:05;18.60;99.90
12111;DHT22;6119;52.372;8.990;2022-08-19T04:56:53;18.40;99.90
12111;DHT22;6119;52.372;8.990;2022-08-19T04:59:39;18.20;99.90
12111;DHT22;6119;52.372;8.990;2022-08-19T05:02:27;18.40;99.90
12111;DHT22;6119;52.372;8.990;2022-08-19T05:05:15;18.50;99.90
12111;DHT22;6119;52.372;8.990;2022-08-19T05:08:01;18.40;99.90
12111;DHT22;6119;52.372;8.990;2022-08-19T05:10:51;18.10;99.90
12111;DHT22;6119;52.372;8.990;2022-08-19T05:13:38;18.10;99.90
12111;DHT22;6119;52.372;8.990;2022-08-19T05:16:27;18.50;99.90
12111;DHT22;6119;52.372;8.990;2022-08-19T05:19:14;18.60;99.90
12111;DHT22;6119;52.372;8.990;2022-08-19T05:22:18;18.40;99.90
12111;DHT22;6119;52.372;8.990;2022-08-19T05:25:21;18.40;99.90
12111;DHT22;6119;52.372;8.990;2022-08-19T05:28:10;18.40;99.90
12111;DHT22;6119;52.372;8.990;2022-08-19T05:30:57;18.50;99.90
12111;DHT22;6119;52.372;8.990;2022-08-19T05:33:43;18.60;99.90
12111;DHT22;6119;52.372;8.990;2022-08-19T05:36:34;18.80;99.90
12111;DHT22;6119;52.372;8.990;2022-08-19T05:39:30;18.70;99.90
12111;DHT22;6119;52.372;8.990;2022-08-19T05:42:17;18.80;99.90
12111;DHT22;6119;52.372;8.990;2022-08-19T05:45:07;18.80;99.90
12111;DHT22;6119;52.372;8.990;2022-08-19T05:47:53;19.00;99.90
12111;DHT22;6119;52.372;8.990;2022-08-19T05:50:41;18.90;99.90
12111;DHT22;6119;52.372;8.990;2022-08-19T05:53:30;19.00;99.90
12111;DHT22;6119;52.372;8.990;2022-08-19T05:56:18;19.00;99.90
12111;DHT22;6119;52.372;8.990;2022-08-19T05:59:06;19.00;99.90
12111;DHT22;6119;52.372;8.990;2022-08-19T06:01:54;19.00;99.90
12111;DHT22;6119;52.372;8.990;2022-08-19T06:04:42;19.10;99.90
12111;DHT22;6119;52.372;8.990;2022-08-19T06:07:28;18.60;99.90
12111;DHT22;6119;52.372;8.990;2022-08-19T06:10:17;18.80;99.90
12111;DHT22;6119;52.372;8.990;2022-08-19T06:13:03;18.40;99.90
12111;DHT22;6119;52.372;8.990;2022-08-19T06:15:50;18.60;99.90
12111;DHT22;6119;52.372;8.990;2022-08-19T06:18:37;18.60;99.90
12111;DHT22;6119;52.372;8.990;2022-08-19T06:21:25;19.00;99.90
12111;DHT22;6119;52.372;8.990;2022-08-19T06:24:14;19.20;99.90
12111;DHT22;6119;52.372;8.990;2022-08-19T06:27:03;19.10;99.90
12111;DHT22;6119;52.372;8.990;2022-08-19T06:29:51;19.20;99.90
12111;DHT22;6119;52.372;8.990;2022-08-19T06:32:39;19.30;99.90
12111;DHT22;6119;52.372;8.990;2022-08-19T06:35:27;19.30;99.90
12111;DHT22;6119;52.372;8.990;2022-08-19T06:38:14;19.30;99.90
12111;DHT22;6119;52.372;8.990;2022-08-19T06:41:01;19.40;99.90
12111;DHT22;6119;52.372;8.990;2022-08-19T06:43:54;19.40;99.90
12111;DHT22;6119;52.372;8.990;2022-08-19T06:46:42;19.40;99.90
12111;DHT22;6119;52.372;8.990;2022-08-19T06:49:37;19.40;99.90
12111;DHT22;6119;52.372;8.990;2022-08-19T06:52:24;19.20;99.90
12111;DHT22;6119;52.372;8.990;2022-08-19T06:55:10;19.30;99.90
12111;DHT22;6119;52.372;8.990;2022-08-19T06:57:56;19.40;99.90
12111;DHT22;6119;52.372;8.990;2022-08-19T07:00:44;19.40;99.90
12111;DHT22;6119;52.372;8.990;2022-08-19T07:03:32;19.50;99.90
12111;DHT22;6119;52.372;8.990;2022-08-19T07:06:21;19.30;99.90
12111;DHT22;6119;52.372;8.990;2022-08-19T07:09:28;19.50;99.90
12111;DHT22;6119;52.372;8.990;2022-08-19T07:12:15;19.50;99.90
12111;DHT22;6119;52.372;8.990;2022-08-19T07:15:07;19.50;99.90
12111;DHT22;6119;52.372;8.990;2022-08-19T07:17:57;19.30;99.90
12111;DHT22;6119;52.372;8.990;2022-08-19T07:20:44;19.40;99.90
12111;DHT22;6119;52.372;8.990;2022-08-19T07:23:31;19.20;99.90
12111;DHT22;6119;52.372;8.990;2022-08-19T07:26:22;19.20;99.90
12111;DHT22;6119;52.372;8.990;2022-08-19T07:29:13;19.40;99.90
12111;DHT22;6119;52.372;8.990;2022-08-19T07:32:01;19.40;99.90
12111;DHT22;6119;52.372;8.990;2022-08-19T07:34:49;19.60;99.90
12111;DHT22;6119;52.372;8.990;2022-08-19T07:37:36;19.50;99.90
12111;DHT22;6119;52.372;8.990;2022-08-19T07:40:23;19.20;99.90
12111;DHT22;6119;52.372;8.990;2022-08-19T07:43:09;19.40;99.90
12111;DHT22;6119;52.372;8.990;2022-08-19T07:46:02;19.60;99.90
12111;DHT22;6119;52.372;8.990;2022-08-19T07:48:50;19.70;99.90
12111;DHT22;6119;52.372;8.990;2022-08-19T07:51:39;19.60;99.90
12111;DHT22;6119;52.372;8.990;2022-08-19T07:54:27;19.50;99.90
12111;DHT22;6119;52.372;8.990;2022-08-19T07:57:14;19.60;99.90
12111;DHT22;6119;52.372;8.990;2022-08-19T08:00:00;19.80;99.90
12111;DHT22;6119;52.372;8.990;2022-08-19T08:02:47;19.90;99.90
12111;DHT22;6119;52.372;8.990;2022-08-19T08:05:35;19.80;99.90
12111;DHT22;6119;52.372;8.990;2022-08-19T08:08:41;20.10;99.90
12111;DHT22;6119;52.372;8.990;2022-08-19T08:11:48;20.30;99.90
12111;DHT22;6119;52.372;8.990;2022-08-19T08:14:37;20.40;99.90
12111;DHT22;6119;52.372;8.990;2022-08-19T08:17:29;20.30;99.90
12111;DHT22;6119;52.372;8.990;2022-08-19T08:20:35;20.40;99.90
12111;DHT22;6119;52.372;8.990;2022-08-19T08:23:22;20.40;99.90
12111;DHT22;6119;52.372;8.990;2022-08-19T08:26:12;20.40;99.90
12111;DHT22;6119;52.372;8.990;2022-08-19T08:29:03;20.50;99.90
12111;DHT22;6119;52.372;8.990;2022-08-19T08:31:57;20.60;99.90
12111;DHT22;6119;52.372;8.990;2022-08-19T08:34:44;20.60;99.90
12111;DHT22;6119;52.372;8.990;2022-08-19T08:37:37;20.60;99.90
12111;DHT22;6119;52.372;8.990;2022-08-19T08:40:28;20.70;99.90
12111;DHT22;6119;52.372;8.990;2022-08-19T08:43:24;20.70;99.90
12111;DHT22;6119;52.372;8.990;2022-08-19T08:46:20;20.90;99.90
12111;DHT22;6119;52.372;8.990;2022-08-19T08:49:24;21.00;99.90
12111;DHT22;6119;52.372;8.990;2022-08-19T08:52:17;20.90;99.90
12111;DHT22;6119;52.372;8.990;2022-08-19T08:55:10;21.00;99.90
12111;DHT22;6119;52.372;8.990;2022-08-19T08:58:01;21.10;99.90
12111;DHT22;6119;52.372;8.990;2022-08-19T09:00:50;21.10;99.90
12111;DHT22;6119;52.372;8.990;2022-08-19T09:03:39;21.30;99.90
12111;DHT22;6119;52.372;8.990;2022-08-19T09:06:38;21.50;99.90
12111;DHT22;6119;52.372;8.990;2022-08-19T09:09:30;21.70;99.90
12111;DHT22;6119;52.372;8.990;2022-08-19T09:12:35;21.80;99.90
12111;DHT22;6119;52.372;8.990;2022-08-19T09:15:30;21.70;99.90
12111;DHT22;6119;52.372;8.990;2022-08-19T09:18:22;21.80;99.90
12111;DHT22;6119;52.372;8.990;2022-08-19T09:21:14;22.00;99.90
12111;DHT22;6119;52.372;8.990;2022-08-19T09:24:02;22.10;99.90
12111;DHT22;6119;52.372;8.990;2022-08-19T09:26:50;22.10;99.90
12111;DHT22;6119;52.372;8.990;2022-08-19T09:29:37;22.20;99.90
12111;DHT22;6119;52.372;8.990;2022-08-19T09:32:25;22.30;99.90
12111;DHT22;6119;52.372;8.990;2022-08-19T09:35:14;22.50;99.90
12111;DHT22;6119;52.372;8.990;2022-08-19T09:38:01;22.60;99.90
12111;DHT22;6119;52.372;8.990;2022-08-19T09:40:47;22.60;99.90
12111;DHT22;6119;52.372;8.990;2022-08-19T09:43:35;22.80;99.90
12111;DHT22;6119;52.372;8.990;2022-08-19T09:46:29;23.10;99.90
12111;DHT22;6119;52.372;8.990;2022-08-19T09:49:18;23.20;99.90
12111;DHT22;6119;52.372;8.990;2022-08-19T09:52:08;23.30;99.90
12111;DHT22;6119;52.372;8.990;2022-08-19T09:54:58;23.20;99.90
12111;DHT22;6119;52.372;8.990;2022-08-19T09:57:45;23.60;99.90
12111;DHT22;6119;52.372;8.990;2022-08-19T10:00:32;23.50;99.90
12111;DHT22;6119;52.372;8.990;2022-08-19T10:03:19;23.80;99.90
12111;DHT22;6119;52.372;8.990;2022-08-19T10:06:10;23.90;99.90
12111;DHT22;6119;52.372;8.990;2022-08-19T10:09:03;23.90;99.90
12111;DHT22;6119;52.372;8.990;2022-08-19T10:11:53;24.10;99.90
12111;DHT22;6119;52.372;8.990;2022-08-19T10:14:39;24.10;99.90
12111;DHT22;6119;52.372;8.990;2022-08-19T10:17:26;24.20;99.90
12111;DHT22;6119;52.372;8.990;2022-08-19T10:20:18;23.70;99.90
12111;DHT22;6119;52.372;8.990;2022-08-19T10:23:04;23.70;99.90
12111;DHT22;6119;52.372;8.990;2022-08-19T10:25:53;24.20;99.90
12111;DHT22;6119;52.372;8.990;2022-08-19T10:28:40;24.30;99.90
12111;DHT22;6119;52.372;8.990;2022-08-19T10:31:33;24.30;99.90
12111;DHT22;6119;52.372;8.990;2022-08-19T10:34:40;24.30;99.90
12111;DHT22;6119;52.372;8.990;2022-08-19T10:37:34;24.40;99.90
12111;DHT22;6119;52.372;8.990;2022-08-19T10:40:40;24.70;99.90
12111;DHT22;6119;52.372;8.990;2022-08-19T10:43:28;24.90;99.90
12111;DHT22;6119;52.372;8.990;2022-08-19T10:46:15;25.00;99.90
12111;DHT22;6119;52.372;8.990;2022-08-19T10:49:04;25.30;99.90
12111;DHT22;6119;52.372;8.990;2022-08-19T10:51:51;25.40;99.90
12111;DHT22;6119;52.372;8.990;2022-08-19T10:55:04;25.20;99.90
12111;DHT22;6119;52.372;8.990;2022-08-19T10:58:15;24.90;99.90
12111;DHT22;6119;52.372;8.990;2022-08-19T11:01:03;25.30;99.90
12111;DHT22;6119;52.372;8.990;2022-08-19T11:03:50;25.50;99.90
12111;DHT22;6119;52.372;8.990;2022-08-19T11:06:36;25.70;99.90
12111;DHT22;6119;52.372;8.990;2022-08-19T11:09:25;25.70;99.90
12111;DHT22;6119;52.372;8.990;2022-08-19T11:12:18;25.80;99.90
12111;DHT22;6119;52.372;8.990;2022-08-19T11:15:06;25.80;99.90
12111;DHT22;6119;52.372;8.990;2022-08-19T11:17:55;25.90;99.90
12111;DHT22;6119;52.372;8.990;2022-08-19T11:20:42;26.10;99.90
12111;DHT22;6119;52.372;8.990;2022-08-19T11:23:28;26.20;99.90
12111;DHT22;6119;52.372;8.990;2022-08-19T11:26:15;25.90;99.90
12111;DHT22;6119;52.372;8.990;2022-08-19T11:29:03;26.00;99.90
12111;DHT22;6119;52.372;8.990;2022-08-19T11:31:51;26.40;99.90
12111;DHT22;6119;52.372;8.990;2022-08-19T11:34:39;26.10;99.90
12111;DHT22;6119;52.372;8.990;2022-08-19T11:37:26;26.40;99.90
12111;DHT22;6119;52.372;8.990;2022-08-19T11:40:12;26.40;99.70
12111;DHT22;6119;52.372;8.990;2022-08-19T11:42:59;26.70;98.90
12111;DHT22;6119;52.372;8.990;2022-08-19T11:45:46;26.90;99.80
12111;DHT22;6119;52.372;8.990;2022-08-19T11:48:34;27.10;98.80
12111;DHT22;6119;52.372;8.990;2022-08-19T11:51:23;27.10;98.90
12111;DHT22;6119;52.372;8.990;2022-08-19T11:54:12;27.10;99.40
12111;DHT22;6119;52.372;8.990;2022-08-19T11:56:59;26.80;98.20
12111;DHT22;6119;52.372;8.990;2022-08-19T11:59:50;27.20;98.10
12111;DHT22;6119;52.372;8.990;2022-08-19T12:02:37;27.30;98.70
12111;DHT22;6119;52.372;8.990;2022-08-19T12:05:23;27.40;96.40
12111;DHT22;6119;52.372;8.990;2022-08-19T12:08:11;27.40;96.90
12111;DHT22;6119;52.372;8.990;2022-08-19T12:10:58;27.20;96.40
12111;DHT22;6119;52.372;8.990;2022-08-19T12:13:46;27.60;97.30
12111;DHT22;6119;52.372;8.990;2022-08-19T12:16:33;27.30;97.10
12111;DHT22;6119;52.372;8.990;2022-08-19T12:19:25;27.60;97.00
12111;DHT22;6119;52.372;8.990;2022-08-19T12:22:11;27.90;97.30
12111;DHT22;6119;52.372;8.990;2022-08-19T12:24:59;28.00;95.80
12111;DHT22;6119;52.372;8.990;2022-08-19T12:27:46;28.00;95.70
12111;DHT22;6119;52.372;8.990;2022-08-19T12:30:42;28.00;97.80
12111;DHT22;6119;52.372;8.990;2022-08-19T12:33:28;28.40;95.50
12111;DHT22;6119;52.372;8.990;2022-08-19T12:36:16;28.50;94.50
12111;DHT22;6119;52.372;8.990;2022-08-19T12:39:03;28.00;94.80
12111;DHT22;6119;52.372;8.990;2022-08-19T12:41:56;28.10;94.30
12111;DHT22;6119;52.372;8.990;2022-08-19T12:44:43;28.20;95.10
12111;DHT22;6119;52.372;8.990;2022-08-19T12:47:30;28.30;94.20
12111;DHT22;6119;52.372;8.990;2022-08-19T12:50:17;28.50;95.50
12111;DHT22;6119;52.372;8.990;2022-08-19T12:53:04;28.40;94.30
12111;DHT22;6119;52.372;8.990;2022-08-19T12:55:54;28.40;94.70
12111;DHT22;6119;52.372;8.990;2022-08-19T12:58:43;28.50;94.40
12111;DHT22;6119;52.372;8.990;2022-08-19T13:01:35;28.60;94.90
12111;DHT22;6119;52.372;8.990;2022-08-19T13:04:21;28.90;94.60
12111;DHT22;6119;52.372;8.990;2022-08-19T13:07:08;28.70;93.10
12111;DHT22;6119;52.372;8.990;2022-08-19T13:09:54;28.80;93.70
12111;DHT22;6119;52.372;8.990;2022-08-19T13:12:43;28.80;94.10
12111;DHT22;6119;52.372;8.990;2022-08-19T13:15:33;29.00;93.30
12111;DHT22;6119;52.372;8.990;2022-08-19T13:18:20;28.80;93.60
12111;DHT22;6119;52.372;8.990;2022-08-19T13:21:09;29.20;93.60
12111;DHT22;6119;52.372;8.990;2022-08-19T13:23:56;29.30;93.70
12111;DHT22;6119;52.372;8.990;2022-08-19T13:26:43;29.10;93.60
12111;DHT22;6119;52.372;8.990;2022-08-19T13:29:29;29.50;94.00
12111;DHT22;6119;52.372;8.990;2022-08-19T13:32:35;29.50;93.60
12111;DHT22;6119;52.372;8.990;2022-08-19T13:35:40;29.10;93.20
12111;DHT22;6119;52.372;8.990;2022-08-19T13:38:28;29.20;93.30
12111;DHT22;6119;52.372;8.990;2022-08-19T13:41:15;29.30;93.00
12111;DHT22;6119;52.372;8.990;2022-08-19T13:44:04;29.30;92.50
12111;DHT22;6119;52.372;8.990;2022-08-19T13:46:52;29.60;92.70
12111;DHT22;6119;52.372;8.990;2022-08-19T13:49:40;29.60;92.40
12111;DHT22;6119;52.372;8.990;2022-08-19T13:52:27;29.70;92.00
12111;DHT22;6119;52.372;8.990;2022-08-19T13:55:15;29.60;92.50
12111;DHT22;6119;52.372;8.990;2022-08-19T13:58:10;29.90;90.70
12111;DHT22;6119;52.372;8.990;2022-08-19T14:00:57;29.40;91.90
12111;DHT22;6119;52.372;8.990;2022-08-19T14:03:44;29.60;90.50
12111;DHT22;6119;52.372;8.990;2022-08-19T14:06:33;29.70;90.60
12111;DHT22;6119;52.372;8.990;2022-08-19T14:09:19;29.70;91.20
12111;DHT22;6119;52.372;8.990;2022-08-19T14:12:06;29.90;91.70
12111;DHT22;6119;52.372;8.990;2022-08-19T14:14:53;29.90;90.90
12111;DHT22;6119;52.372;8.990;2022-08-19T14:17:40;29.70;90.10
12111;DHT22;6119;52.372;8.990;2022-08-19T14:20:27;29.90;91.30
12111;DHT22;6119;52.372;8.990;2022-08-19T14:23:15;30.20;89.80
12111;DHT22;6119;52.372;8.990;2022-08-19T14:26:06;29.80;90.00
12111;DHT22;6119;52.372;8.990;2022-08-19T14:28:53;29.50;89.70
12111;DHT22;6119;52.372;8.990;2022-08-19T14:31:43;29.80;90.20
12111;DHT22;6119;52.372;8.990;2022-08-19T14:34:29;29.90;90.40
12111;DHT22;6119;52.372;8.990;2022-08-19T14:37:16;29.90;89.40
12111;DHT22;6119;52.372;8.990;2022-08-19T14:40:06;29.90;90.10
12111;DHT22;6119;52.372;8.990;2022-08-19T14:42:53;29.80;88.80
12111;DHT22;6119;52.372;8.990;2022-08-19T14:45:41;30.20;88.00
12111;DHT22;6119;52.372;8.990;2022-08-19T14:48:28;30.00;86.20
12111;DHT22;6119;52.372;8.990;2022-08-19T14:51:14;30.00;88.30
12111;DHT22;6119;52.372;8.990;2022-08-19T14:54:00;30.20;85.90
12111;DHT22;6119;52.372;8.990;2022-08-19T14:56:48;29.90;85.80
12111;DHT22;6119;52.372;8.990;2022-08-19T14:59:35;30.10;87.40
12111;DHT22;6119;52.372;8.990;2022-08-19T15:02:23;29.90;86.90
12111;DHT22;6119;52.372;8.990;2022-08-19T15:05:20;30.10;88.20
12111;DHT22;6119;52.372;8.990;2022-08-19T15:08:06;30.40;87.20
12111;DHT22;6119;52.372;8.990;2022-08-19T15:10:53;30.00;86.20
12111;DHT22;6119;52.372;8.990;2022-08-19T15:13:42;30.00;87.90
12111;DHT22;6119;52.372;8.990;2022-08-19T15:16:29;30.20;87.90
12111;DHT22;6119;52.372;8.990;2022-08-19T15:19:15;29.80;86.50
12111;DHT22;6119;52.372;8.990;2022-08-19T15:22:03;30.10;87.80
12111;DHT22;6119;52.372;8.990;2022-08-19T15:24:49;29.90;84.90
12111;DHT22;6119;52.372;8.990;2022-08-19T15:27:36;30.00;86.30
12111;DHT22;6119;52.372;8.990;2022-08-19T15:30:26;30.10;84.10
12111;DHT22;6119;52.372;8.990;2022-08-19T15:33:14;30.20;84.20
12111;DHT22;6119;52.372;8.990;2022-08-19T15:36:03;30.00;83.90
12111;DHT22;6119;52.372;8.990;2022-08-19T15:38:52;30.20;84.10
12111;DHT22;6119;52.372;8.990;2022-08-19T15:41:41;30.50;84.40
12111;DHT22;6119;52.372;8.990;2022-08-19T15:44:29;30.50;83.60
12111;DHT22;6119;52.372;8.990;2022-08-19T15:47:17;30.10;84.60
12111;DHT22;6119;52.372;8.990;2022-08-19T15:50:06;29.70;84.60
12111;DHT22;6119;52.372;8.990;2022-08-19T15:52:59;29.40;85.60
12111;DHT22;6119;52.372;8.990;2022-08-19T15:55:46;29.70;84.70
12111;DHT22;6119;52.372;8.990;2022-08-19T15:58:33;29.50;84.10
12111;DHT22;6119;52.372;8.990;2022-08-19T16:01:38;29.50;84.80
12111;DHT22;6119;52.372;8.990;2022-08-19T16:04:43;29.30;85.30
12111;DHT22;6119;52.372;8.990;2022-08-19T16:07:47;29.00;87.10
12111;DHT22;6119;52.372;8.990;2022-08-19T16:10:36;29.10;88.70
12111;DHT22;6119;52.372;8.990;2022-08-19T16:13:22;29.20;87.90
12111;DHT22;6119;52.372;8.990;2022-08-19T16:16:09;29.10;88.70
12111;DHT22;6119;52.372;8.990;2022-08-19T16:18:57;28.90;90.40
12111;DHT22;6119;52.372;8.990;2022-08-19T16:21:46;29.00;89.70
12111;DHT22;6119;52.372;8.990;2022-08-19T16:24:33;29.20;88.30
12111;DHT22;6119;52.372;8.990;2022-08-19T16:27:20;29.50;89.50
12111;DHT22;6119;52.372;8.990;2022-08-19T16:30:07;29.50;88.60
12111;DHT22;6119;52.372;8.990;2022-08-19T16:32:54;29.50;89.20
12111;DHT22;6119;52.372;8.990;2022-08-19T16:35:40;29.60;89.50
12111;DHT22;6119;52.372;8.990;2022-08-19T16:38:33;29.50;89.60
12111;DHT22;6119;52.372;8.990;2022-08-19T16:41:21;29.80;88.40
12111;DHT22;6119;52.372;8.990;2022-08-19T16:44:10;29.70;90.00
12111;DHT22;6119;52.372;8.990;2022-08-19T16:46:57;30.00;88.20
12111;DHT22;6119;52.372;8.990;2022-08-19T16:49:44;29.90;89.60
12111;DHT22;6119;52.372;8.990;2022-08-19T16:52:39;29.70;90.10
12111;DHT22;6119;52.372;8.990;2022-08-19T16:55:28;30.10;88.50
12111;DHT22;6119;52.372;8.990;2022-08-19T16:58:14;30.00;88.80
12111;DHT22;6119;52.372;8.990;2022-08-19T17:01:06;30.10;90.00
12111;DHT22;6119;52.372;8.990;2022-08-19T17:03:55;30.00;90.00
12111;DHT22;6119;52.372;8.990;2022-08-19T17:06:42;30.00;89.70
12111;DHT22;6119;52.372;8.990;2022-08-19T17:09:29;29.90;89.50
12111;DHT22;6119;52.372;8.990;2022-08-19T17:12:18;29.80;89.80
12111;DHT22;6119;52.372;8.990;2022-08-19T17:15:06;29.80;90.50
12111;DHT22;6119;52.372;8.990;2022-08-19T17:17:58;29.60;90.50
12111;DHT22;6119;52.372;8.990;2022-08-19T17:20:45;29.50;90.50
12111;DHT22;6119;52.372;8.990;2022-08-19T17:23:32;29.30;91.00
12111;DHT22;6119;52.372;8.990;2022-08-19T17:26:28;29.30;91.80
12111;DHT22;6119;52.372;8.990;2022-08-19T17:29:16;29.20;92.80
12111;DHT22;6119;52.372;8.990;2022-08-19T17:32:03;29.30;91.80
12111;DHT22;6119;52.372;8.990;2022-08-19T17:34:51;29.30;92.20
12111;DHT22;6119;52.372;8.990;2022-08-19T17:37:39;29.30;91.40
12111;DHT22;6119;52.372;8.990;2022-08-19T17:40:26;29.20;92.30
12111;DHT22;6119;52.372;8.990;2022-08-19T17:43:15;28.90;92.00
12111;DHT22;6119;52.372;8.990;2022-08-19T17:46:18;28.70;91.50
12111;DHT22;6119;52.372;8.990;2022-08-19T17:49:05;28.50;92.30
12111;DHT22;6119;52.372;8.990;2022-08-19T17:51:51;28.50;92.80
12111;DHT22;6119;52.372;8.990;2022-08-19T17:54:38;28.50;92.60
12111;DHT22;6119;52.372;8.990;2022-08-19T17:57:24;28.30;93.90
12111;DHT22;6119;52.372;8.990;2022-08-19T18:00:12;28.20;94.60
12111;DHT22;6119;52.372;8.990;2022-08-19T18:03:04;28.10;94.10
12111;DHT22;6119;52.372;8.990;2022-08-19T18:05:51;28.00;93.60
12111;DHT22;6119;52.372;8.990;2022-08-19T18:08:37;27.60;93.60